Ubc Tokyo — C4DT2 — position and weather

sailwx.info

Track history (hours):
 
Tides and Currents Weather Stations Pressure Air Temp Water Temp Dewpoint Dewpoint Depression Visibility Wind Speed Wind Dir Waves Ship Positions

Ubc Tokyo

Last reported at 2017-Nov-09 17:14 UTC. Time now 2017-Nov-20 17:30 UTC.
Position N 44°13' E 029°16'.
Warning: this ship's position is 11 days out of date.

Length 183 m; draft 6.2 m.

Type: Cargo ship. MMSI: 210786000.

Date/timePositionNaut miles runAvg speedWind from/ knotsBaromVisibWave heightAir tempDewpointWater temp
2017-Nov-09 17:14N 44°13' E 029°16'313.4
2017-Nov-09 16:59N 44°10' E 029°12'613.4
2017-Nov-09 16:30N 44°07' E 029°05'713.4
2017-Nov-09 16:00N 44°03' E 028°57'5 9.8
2017-Nov-09 15:31N 44°00' E 028°52'5 9.9
2017-Nov-09 15:01N 44°02' E 028°45'5 9.8
2017-Nov-09 14:31N 44°06' E 028°42'3 6.5
2017-Nov-09 14:01N 44°09' E 028°40'1 1.8
2017-Nov-09 13:30N 44°10' E 028°39'0 0.0
2017-Nov-09 12:57N 44°10' E 028°39'0 0.0
2017-Nov-09 12:30N 44°10' E 028°39'0 0.0
2017-Nov-09 12:00N 44°10' E 028°39'0 0.0
2017-Nov-09 11:30N 44°10' E 028°39'0 0.0
2017-Nov-09 11:00N 44°10' E 028°39'0 0.0
2017-Nov-09 10:30N 44°10' E 028°39'0 0.0
2017-Nov-09 10:00N 44°10' E 028°39'0 0.0
2017-Nov-09 09:30N 44°10' E 028°39'0 0.0
2017-Nov-09 09:00N 44°10' E 028°39'0 0.0
2017-Nov-09 08:30N 44°10' E 028°39'0 0.0
2017-Nov-09 08:00N 44°10' E 028°39'0 0.0
2017-Nov-09 07:30N 44°10' E 028°39'0 0.0
2017-Nov-09 07:00N 44°10' E 028°39'0 0.0
2017-Nov-09 06:30N 44°10' E 028°39'0 0.0
2017-Nov-09 06:00N 44°10' E 028°39'0 0.0
2017-Nov-09 05:30N 44°10' E 028°39'0 0.0
2017-Nov-09 05:00N 44°10' E 028°39'0 0.0
2017-Nov-09 04:30N 44°10' E 028°39'0 0.0
2017-Nov-09 04:00N 44°10' E 028°39'0 0.0
2017-Nov-09 03:30N 44°10' E 028°39'0 0.0
2017-Nov-09 03:00N 44°10' E 028°39'0 0.0
2017-Nov-09 02:30N 44°10' E 028°39'0 0.0
2017-Nov-09 02:00N 44°10' E 028°39'0 0.0
2017-Nov-09 01:30N 44°10' E 028°39'0 0.0
2017-Nov-09 01:00N 44°10' E 028°39'0 0.0
2017-Nov-09 00:30N 44°10' E 028°39'0 0.0
2017-Nov-09 00:00N 44°10' E 028°39'0 0.0
2017-Nov-08 23:30N 44°10' E 028°39'0 0.0
2017-Nov-08 23:00N 44°10' E 028°39'0 0.0
2017-Nov-08 22:30N 44°10' E 028°39'0 0.0
2017-Nov-08 22:00N 44°10' E 028°39'0 0.0
2017-Nov-08 21:30N 44°10' E 028°39'0 0.0
2017-Nov-08 21:00N 44°10' E 028°39'0 0.0
2017-Nov-08 20:30N 44°10' E 028°39'0 0.0
2017-Nov-08 20:00N 44°10' E 028°39'0 0.0
2017-Nov-08 19:30N 44°10' E 028°39'0 0.0
2017-Nov-08 19:00N 44°10' E 028°39'0 0.0
2017-Nov-08 18:30N 44°10' E 028°39'0 0.0
2017-Nov-08 18:00N 44°10' E 028°39'0 0.0
2017-Nov-08 17:30N 44°10' E 028°39'0 0.0
2017-Nov-08 17:00N 44°10' E 028°39'0 0.0
2017-Nov-08 16:30N 44°10' E 028°39'0 0.0
2017-Nov-08 16:00N 44°10' E 028°39'0 0.0
2017-Nov-08 15:30N 44°10' E 028°39'0 0.0
2017-Nov-08 15:00N 44°10' E 028°39'0 0.0
2017-Nov-08 14:30N 44°10' E 028°39'0 0.0
2017-Nov-08 14:00N 44°10' E 028°39'0 0.0
2017-Nov-08 13:30N 44°10' E 028°39'0 0.0
2017-Nov-08 13:00N 44°10' E 028°39'0 0.0
2017-Nov-08 12:30N 44°10' E 028°39'0 0.0
2017-Nov-08 12:00N 44°10' E 028°39'0 0.0
2017-Nov-08 11:30N 44°10' E 028°39'0 0.0
2017-Nov-08 11:00N 44°10' E 028°39'0 0.0
2017-Nov-08 10:30N 44°10' E 028°39'0 0.0
2017-Nov-08 10:00N 44°10' E 028°39'0 0.0
2017-Nov-08 09:30N 44°10' E 028°39'0 0.0
2017-Nov-08 09:00N 44°10' E 028°39'0 0.0
2017-Nov-08 08:30N 44°10' E 028°39'0 0.0
2017-Nov-08 08:00N 44°10' E 028°39'0 0.0
2017-Nov-08 07:30N 44°10' E 028°39'0 0.0
2017-Nov-08 07:00N 44°10' E 028°39'0 0.0
2017-Nov-08 06:30N 44°10' E 028°39'0 0.0
2017-Nov-08 06:00N 44°10' E 028°39'0 0.0
2017-Nov-08 05:30N 44°10' E 028°39'0 0.0
2017-Nov-08 05:00N 44°10' E 028°39'0 0.0
2017-Nov-08 04:30N 44°10' E 028°39'0 0.0
2017-Nov-08 04:00N 44°10' E 028°39'0 0.0
2017-Nov-08 03:30N 44°10' E 028°39'0 0.0
2017-Nov-08 03:00N 44°10' E 028°39'0 0.0
2017-Nov-08 02:30N 44°10' E 028°39'0 0.0
2017-Nov-08 02:00N 44°10' E 028°39'0 0.0
2017-Nov-08 01:30N 44°10' E 028°39'0 0.0
2017-Nov-08 01:00N 44°10' E 028°39'0 0.0
2017-Nov-08 00:30N 44°10' E 028°39'0 0.0
2017-Nov-08 00:00N 44°10' E 028°39'0 0.0
2017-Nov-07 23:30N 44°10' E 028°39'0 0.0
2017-Nov-07 23:00N 44°10' E 028°39'0 0.0
2017-Nov-07 22:30N 44°10' E 028°39'0 0.0
2017-Nov-07 22:00N 44°10' E 028°39'0 0.0
2017-Nov-07 21:30N 44°10' E 028°39'0 0.0
2017-Nov-07 21:00N 44°10' E 028°39'0 0.0
2017-Nov-07 20:30N 44°10' E 028°39'0 0.0
2017-Nov-07 20:00N 44°10' E 028°39'0 0.0
2017-Nov-07 19:30N 44°10' E 028°39'0 0.0
2017-Nov-07 19:00N 44°10' E 028°39'0 0.0
2017-Nov-07 18:30N 44°10' E 028°39'0 0.0
2017-Nov-07 18:00N 44°10' E 028°39'0 0.0
2017-Nov-07 17:30N 44°10' E 028°39'0 0.0
2017-Nov-07 17:00N 44°10' E 028°39'0 0.0
2017-Nov-07 16:30N 44°10' E 028°39'0 0.0
2017-Nov-07 16:00N 44°10' E 028°39'0 0.0
2017-Nov-07 15:24N 44°10' E 028°39'0 0.0
2017-Nov-07 15:00N 44°10' E 028°39'0 0.0
2017-Nov-07 14:30N 44°10' E 028°39'0 0.0
2017-Nov-07 14:00N 44°10' E 028°39'0 0.0
2017-Nov-07 13:30N 44°10' E 028°39'0 0.0
2017-Nov-07 13:00N 44°10' E 028°39'0 0.0
2017-Nov-07 12:30N 44°10' E 028°39'0 0.0
2017-Nov-07 12:00N 44°10' E 028°39'0 0.0
2017-Nov-07 11:24N 44°10' E 028°39'0 0.0
2017-Nov-07 11:00N 44°10' E 028°39'0 0.0
2017-Nov-07 10:30N 44°10' E 028°39'0 0.0
2017-Nov-07 10:00N 44°10' E 028°39'0 0.0
2017-Nov-07 09:30N 44°10' E 028°39'0 0.0
2017-Nov-07 09:00N 44°10' E 028°39'0 0.0
2017-Nov-07 08:30N 44°10' E 028°39'0 0.0
2017-Nov-07 08:00N 44°10' E 028°39'0 0.0
2017-Nov-07 07:30N 44°10' E 028°39'0 0.0
2017-Nov-07 07:00N 44°10' E 028°39'0 0.0
2017-Nov-07 06:30N 44°10' E 028°39'0 0.0
2017-Nov-07 06:00N 44°10' E 028°39'0 0.0
2017-Nov-07 05:30N 44°10' E 028°39'0 0.0
2017-Nov-07 04:57N 44°10' E 028°39'0 0.0
2017-Nov-07 04:30N 44°10' E 028°39'0 0.0
2017-Nov-07 04:00N 44°10' E 028°39'0 0.0
2017-Nov-07 03:30N 44°10' E 028°39'0 0.0
2017-Nov-07 03:00N 44°10' E 028°39'0 0.0
2017-Nov-07 02:30N 44°10' E 028°39'0 0.0
2017-Nov-07 02:00N 44°10' E 028°39'0 0.0
2017-Nov-07 01:30N 44°10' E 028°39'0 0.0
2017-Nov-07 01:00N 44°10' E 028°39'0 0.0
2017-Nov-07 00:30N 44°10' E 028°39'0 0.0
2017-Nov-07 00:00N 44°10' E 028°39'0 0.0
2017-Nov-06 23:30N 44°10' E 028°39'0 0.0
2017-Nov-06 23:00N 44°10' E 028°39'0 0.0
2017-Nov-06 22:30N 44°10' E 028°39'0 0.0
2017-Nov-06 22:00N 44°10' E 028°39'0 0.0
2017-Nov-06 21:30N 44°10' E 028°39'0 0.0
2017-Nov-06 21:00N 44°10' E 028°39'0 0.0
2017-Nov-06 20:30N 44°10' E 028°39'0 0.0
2017-Nov-06 02:30N 44°10' E 028°39'0 0.0
2017-Nov-06 02:00N 44°10' E 028°39'0 0.0
2017-Nov-06 01:30N 44°10' E 028°39'0 0.0
2017-Nov-06 01:00N 44°10' E 028°39'0 0.0
2017-Nov-06 00:30N 44°10' E 028°39'0 0.0
2017-Nov-06 00:00N 44°10' E 028°39'0 0.0
2017-Nov-05 23:30N 44°10' E 028°39'0 0.0
2017-Nov-05 23:00N 44°10' E 028°39'0 0.0
2017-Nov-05 22:30N 44°10' E 028°39'0 0.0
2017-Nov-05 22:00N 44°10' E 028°39'0 0.0
2017-Nov-05 21:30N 44°10' E 028°39'0 0.0
2017-Nov-05 21:00N 44°10' E 028°39'0 0.0
2017-Nov-05 20:30N 44°10' E 028°39'0 0.0
2017-Nov-05 20:00N 44°10' E 028°39'0 0.0
2017-Nov-05 19:30N 44°10' E 028°39'0 0.0
2017-Nov-05 19:00N 44°10' E 028°39'0 0.0
2017-Nov-05 18:30N 44°10' E 028°39'0 0.0
2017-Nov-05 18:00N 44°10' E 028°39'0 0.0
2017-Nov-05 17:30N 44°10' E 028°39'0 0.0
2017-Nov-05 17:00N 44°10' E 028°39'0 0.0
2017-Nov-05 16:30N 44°10' E 028°39'0 0.0
2017-Nov-05 16:00N 44°10' E 028°39'0 0.0
2017-Nov-05 15:30N 44°10' E 028°39'0 0.0
2017-Nov-05 15:00N 44°10' E 028°39'0 0.0
2017-Nov-05 14:30N 44°10' E 028°39'0 0.0
2017-Nov-05 14:00N 44°10' E 028°39'0 0.0
2017-Nov-05 13:30N 44°10' E 028°39'0 0.0
2017-Nov-05 13:00N 44°10' E 028°39'0 0.0
2017-Nov-05 12:30N 44°10' E 028°39'0 0.0
2017-Nov-05 12:00N 44°10' E 028°39'0 0.0
2017-Nov-05 11:30N 44°10' E 028°39'0 0.0
2017-Nov-05 11:00N 44°10' E 028°39'0 0.0
2017-Nov-05 10:30N 44°10' E 028°39'0 0.0
2017-Nov-05 10:00N 44°10' E 028°39'0 0.0
2017-Nov-05 09:30N 44°10' E 028°39'0 0.0
2017-Nov-05 09:00N 44°10' E 028°39'0 0.0
2017-Nov-05 08:30N 44°10' E 028°39'0 0.0
2017-Nov-05 08:00N 44°10' E 028°39'0 0.0
2017-Nov-05 07:30N 44°10' E 028°39'0 0.0
2017-Nov-05 07:00N 44°10' E 028°39'0 0.0
2017-Nov-05 06:30N 44°10' E 028°39'0 0.0
2017-Nov-05 06:00N 44°10' E 028°39'0 0.0
2017-Nov-05 05:30N 44°10' E 028°39'0 0.0
2017-Nov-05 05:00N 44°10' E 028°39'0 0.0
2017-Nov-05 04:30N 44°10' E 028°39'0 0.0
2017-Nov-05 04:00N 44°10' E 028°39'0 0.0
2017-Nov-05 03:30N 44°10' E 028°39'0 0.0
2017-Nov-05 03:00N 44°10' E 028°39'0 0.0
2017-Nov-05 02:30N 44°10' E 028°39'0 0.0
2017-Nov-05 02:00N 44°10' E 028°39'0 0.0
2017-Nov-05 01:30N 44°10' E 028°39'0 0.0
2017-Nov-05 01:00N 44°10' E 028°39'0 0.0
2017-Nov-05 00:30N 44°10' E 028°39'0 0.0
2017-Nov-05 00:00N 44°10' E 028°39'0 0.0
2017-Nov-04 23:30N 44°10' E 028°39'0 0.0
2017-Nov-04 23:00N 44°10' E 028°39'0 0.0
2017-Nov-04 22:30N 44°10' E 028°39'0 0.0
2017-Nov-04 22:00N 44°10' E 028°39'0 0.0
2017-Nov-04 21:30N 44°10' E 028°39'0 0.0
2017-Nov-04 21:00N 44°10' E 028°39'0 0.0
2017-Nov-04 20:30N 44°10' E 028°39'0 0.0
2017-Nov-04 20:00N 44°10' E 028°39'0 0.0
2017-Nov-04 19:30N 44°10' E 028°39'0 0.0
2017-Nov-04 19:00N 44°10' E 028°39'0 0.0
2017-Nov-04 18:30N 44°10' E 028°39'0 0.0
2017-Nov-04 18:00N 44°10' E 028°39'0 0.0
2017-Nov-04 17:30N 44°10' E 028°39'0 0.0
2017-Nov-04 17:00N 44°10' E 028°39'0 0.0
2017-Nov-04 16:30N 44°10' E 028°39'0 0.0
2017-Nov-04 16:00N 44°10' E 028°39'0 0.0
2017-Nov-04 15:30N 44°10' E 028°39'0 0.0
2017-Nov-04 15:00N 44°10' E 028°39'0 0.0
2017-Nov-04 14:30N 44°10' E 028°39'0 0.0
2017-Nov-04 14:00N 44°10' E 028°39'0 0.0
2017-Nov-04 13:27N 44°10' E 028°39'0 0.0
2017-Nov-04 13:00N 44°10' E 028°39'0 0.0
2017-Nov-04 12:30N 44°10' E 028°39'0 0.0
2017-Nov-04 12:00N 44°10' E 028°39'0 0.0
2017-Nov-04 11:30N 44°10' E 028°39'0 0.0
2017-Nov-04 11:00N 44°10' E 028°39'0 0.0
2017-Nov-04 10:30N 44°10' E 028°39'0 0.0
2017-Nov-04 10:00N 44°10' E 028°39'0 0.0
2017-Nov-04 09:30N 44°10' E 028°39'0 0.0
2017-Nov-04 09:00N 44°10' E 028°39'0 0.0
2017-Nov-04 08:30N 44°10' E 028°39'0 0.0
2017-Nov-04 08:00N 44°10' E 028°39'0 0.0
2017-Nov-04 07:30N 44°10' E 028°39'0 0.0
2017-Nov-04 07:00N 44°10' E 028°39'0 0.0
2017-Nov-04 06:27N 44°10' E 028°39'0 0.0
2017-Nov-04 06:00N 44°10' E 028°39'0 0.0
2017-Nov-04 05:30N 44°10' E 028°39'0 0.0
2017-Nov-04 05:00N 44°10' E 028°39'0 0.0
2017-Nov-04 04:30N 44°10' E 028°39'0 0.0
2017-Nov-04 04:00N 44°10' E 028°39'0 0.0
2017-Nov-04 03:30N 44°10' E 028°39'0 0.0
2017-Nov-04 03:00N 44°10' E 028°39'0 0.0
2017-Nov-04 02:30N 44°10' E 028°39'0 0.0
2017-Nov-04 01:56N 44°10' E 028°39'0 0.0
2017-Nov-04 01:30N 44°10' E 028°39'0 0.0
2017-Nov-04 01:00N 44°10' E 028°39'0 0.0
2017-Nov-04 00:30N 44°10' E 028°39'0 0.0
2017-Nov-03 23:59N 44°10' E 028°39'0 0.0
2017-Nov-03 23:30N 44°10' E 028°39'0 0.0
2017-Nov-03 23:00N 44°10' E 028°39'0 0.0
2017-Nov-03 22:30N 44°10' E 028°39'0 0.0
2017-Nov-03 22:00N 44°10' E 028°39'0 0.0
2017-Nov-03 21:30N 44°10' E 028°39'0 0.0
2017-Nov-03 21:00N 44°10' E 028°39'0 0.0
2017-Nov-03 20:30N 44°10' E 028°39'0 0.0
2017-Nov-03 19:59N 44°10' E 028°39'0 0.0
2017-Nov-03 19:30N 44°10' E 028°39'0 0.0
2017-Nov-03 19:00N 44°10' E 028°39'0 0.0
2017-Nov-03 18:30N 44°10' E 028°39'0 0.0
2017-Nov-03 18:00N 44°10' E 028°39'0 0.0
2017-Nov-03 17:29N 44°10' E 028°39'0 0.0
2017-Nov-03 16:59N 44°10' E 028°39'0 0.0
2017-Nov-03 16:30N 44°10' E 028°39'0 0.0
2017-Nov-03 16:00N 44°10' E 028°39'0 0.0
2017-Nov-03 15:30N 44°10' E 028°39'0 0.0
2017-Nov-03 15:00N 44°10' E 028°39'0 0.0
2017-Nov-03 14:30N 44°10' E 028°39'0 0.0
2017-Nov-03 14:00N 44°10' E 028°39'0 0.0
2017-Nov-03 13:30N 44°10' E 028°39'0 0.0
2017-Nov-03 13:00N 44°10' E 028°39'0 0.0
2017-Nov-03 12:29N 44°10' E 028°39'0 0.0
2017-Nov-03 12:00N 44°10' E 028°39'0 0.0
2017-Nov-03 11:30N 44°10' E 028°39'0 0.0
2017-Nov-03 10:59N 44°10' E 028°39'0 0.0
2017-Nov-03 10:29N 44°10' E 028°39'0 0.0
2017-Nov-03 09:59N 44°10' E 028°39'0 0.0
2017-Nov-03 09:30N 44°10' E 028°39'0 0.0
2017-Nov-03 09:00N 44°10' E 028°39'0 0.0
2017-Nov-03 08:29N 44°10' E 028°39'0 0.0
2017-Nov-03 07:59N 44°10' E 028°39'0 0.0
2017-Nov-03 07:29N 44°10' E 028°39'0 0.0
2017-Nov-03 06:59N 44°10' E 028°39'0 0.0
2017-Nov-03 06:29N 44°10' E 028°39'0 0.0
2017-Nov-03 05:59N 44°10' E 028°39'0 0.0
2017-Nov-03 05:29N 44°10' E 028°39'0 0.0
2017-Nov-03 04:59N 44°10' E 028°39'0 0.0
2017-Nov-03 04:29N 44°10' E 028°39'0 0.0
2017-Nov-03 04:00N 44°10' E 028°39'0 0.0
2017-Nov-03 03:29N 44°10' E 028°39'0 0.0
2017-Nov-03 02:59N 44°10' E 028°39'0 0.0
2017-Nov-03 02:29N 44°10' E 028°39'0 0.0
2017-Nov-03 01:59N 44°10' E 028°39'0 0.0
2017-Nov-03 01:30N 44°10' E 028°39'0 0.0
2017-Nov-03 00:59N 44°10' E 028°39'0 0.0
2017-Nov-03 00:29N 44°10' E 028°39'0 0.0
2017-Nov-02 23:59N 44°10' E 028°39'0 0.0
2017-Nov-02 23:29N 44°10' E 028°39'0 0.0
2017-Nov-02 22:59N 44°10' E 028°39'0 0.0
2017-Nov-02 22:29N 44°10' E 028°39'0 0.0
2017-Nov-02 22:00N 44°10' E 028°39'0 0.0
2017-Nov-02 21:29N 44°10' E 028°39'0 0.0
2017-Nov-02 20:59N 44°10' E 028°39'0 0.0
2017-Nov-02 20:29N 44°10' E 028°39'0 0.0
2017-Nov-02 19:59N 44°10' E 028°39'0 0.0
2017-Nov-02 19:29N 44°10' E 028°39'0 0.0
2017-Nov-02 18:59N 44°10' E 028°39'0 0.0
2017-Nov-02 18:29N 44°10' E 028°39'0 0.0
2017-Nov-02 17:59N 44°10' E 028°39'0 0.0
2017-Nov-02 17:29N 44°10' E 028°39'0 0.0
2017-Nov-02 16:59N 44°10' E 028°39'0 0.0
2017-Nov-02 16:29N 44°10' E 028°39'0 0.0
2017-Nov-02 15:59N 44°10' E 028°39'0 0.0
2017-Nov-02 15:29N 44°10' E 028°39'0 0.0
2017-Nov-02 14:59N 44°10' E 028°39'0 0.0
2017-Nov-02 14:29N 44°10' E 028°39'0 0.0
2017-Nov-02 13:59N 44°10' E 028°39'0 0.0
2017-Nov-02 13:29N 44°10' E 028°39'0 0.0
2017-Nov-02 12:59N 44°10' E 028°39'0 0.0
2017-Nov-02 12:29N 44°10' E 028°39'0 0.0
2017-Nov-02 11:59N 44°10' E 028°39'0 0.0
2017-Nov-02 11:29N 44°10' E 028°39'0 0.0
2017-Nov-02 10:59N 44°10' E 028°39'0 0.0
2017-Nov-02 10:29N 44°10' E 028°39'0 0.0
2017-Nov-02 09:59N 44°10' E 028°39'0 0.0
2017-Nov-02 09:29N 44°10' E 028°39'0 0.0
2017-Nov-02 08:59N 44°10' E 028°39'0 0.0
2017-Nov-02 08:29N 44°10' E 028°39'0 0.0
2017-Nov-02 07:59N 44°10' E 028°39'0 0.0
2017-Nov-02 07:29N 44°10' E 028°39'0 0.0
2017-Nov-02 06:59N 44°10' E 028°39'0 0.0
2017-Nov-02 06:29N 44°10' E 028°39'0 0.0
2017-Nov-02 05:59N 44°10' E 028°39'0 0.0
2017-Nov-02 05:29N 44°10' E 028°39'0 0.0
2017-Nov-02 04:59N 44°10' E 028°39'0 0.0
2017-Nov-02 04:29N 44°10' E 028°39'0 0.0
2017-Nov-02 03:59N 44°10' E 028°39'0 0.0
2017-Nov-02 03:29N 44°10' E 028°39'0 0.0
2017-Nov-02 02:59N 44°10' E 028°39'0 0.0
2017-Nov-02 02:29N 44°10' E 028°39'0 0.0
2017-Nov-02 01:59N 44°10' E 028°39'0 0.0
2017-Nov-02 01:29N 44°10' E 028°39'0 0.0
2017-Nov-02 00:59N 44°10' E 028°39'0 0.0
2017-Nov-02 00:29N 44°10' E 028°39'0 0.0
2017-Nov-01 23:59N 44°10' E 028°39'0 0.0
2017-Nov-01 23:29N 44°10' E 028°39'0 0.0
2017-Nov-01 22:59N 44°10' E 028°39'0 0.0
2017-Nov-01 22:29N 44°10' E 028°39'0 0.0
2017-Nov-01 21:59N 44°10' E 028°39'0 0.0
2017-Nov-01 21:29N 44°10' E 028°39'0 0.0
2017-Nov-01 20:59N 44°10' E 028°39'0 0.0
2017-Nov-01 20:29N 44°10' E 028°39'0 0.0
2017-Nov-01 19:59N 44°10' E 028°39'0 0.0
2017-Nov-01 19:29N 44°10' E 028°39'0 0.0
2017-Nov-01 18:59N 44°10' E 028°39'0 0.0
2017-Nov-01 18:29N 44°10' E 028°39'0 0.0
2017-Nov-01 01:59N 44°10' E 028°39'0 0.0
2017-Nov-01 01:29N 44°10' E 028°39'0 0.0
2017-Nov-01 00:59N 44°10' E 028°39'0 0.0
2017-Nov-01 00:29N 44°10' E 028°39'0 0.0
2017-Oct-31 23:59N 44°10' E 028°39'0 0.0
2017-Oct-31 23:26N 44°10' E 028°39'0 0.0
2017-Oct-31 22:59N 44°10' E 028°39'0 0.0
2017-Oct-31 22:29N 44°10' E 028°39'0 0.0
2017-Oct-31 21:59N 44°10' E 028°39'0 0.0
2017-Oct-31 21:29N 44°10' E 028°39'0 0.0
2017-Oct-31 20:59N 44°10' E 028°39'0 0.0
2017-Oct-31 20:29N 44°10' E 028°39'0 0.0
2017-Oct-31 19:59N 44°10' E 028°39'0 0.0
2017-Oct-31 19:29N 44°10' E 028°39'0 0.0
2017-Oct-31 18:59N 44°10' E 028°39'0 0.0
2017-Oct-31 18:29N 44°10' E 028°39'0 0.0
2017-Oct-31 17:59N 44°10' E 028°39'0 0.0
2017-Oct-31 17:29N 44°10' E 028°39'0 0.0
2017-Oct-31 16:59N 44°10' E 028°39'0 0.0
2017-Oct-31 16:29N 44°10' E 028°39'0 0.0
2017-Oct-31 15:59N 44°10' E 028°39'0 0.0
2017-Oct-31 15:29N 44°10' E 028°39'0 0.0
2017-Oct-31 14:59N 44°10' E 028°39'0 0.0
2017-Oct-31 14:29N 44°10' E 028°39'0 0.0
2017-Oct-31 13:59N 44°10' E 028°39'0 0.0
2017-Oct-31 13:26N 44°10' E 028°39'0 0.0
2017-Oct-31 12:59N 44°10' E 028°39'0 0.0
2017-Oct-31 12:29N 44°10' E 028°39'0 0.0
2017-Oct-31 11:59N 44°10' E 028°39'0 0.0
2017-Oct-31 11:29N 44°10' E 028°39'0 0.0
2017-Oct-31 10:59N 44°10' E 028°39'0 0.0
2017-Oct-31 10:29N 44°10' E 028°39'0 0.0
2017-Oct-31 09:59N 44°10' E 028°39'0 0.0
2017-Oct-31 09:23N 44°10' E 028°39'0 0.0
2017-Oct-31 08:59N 44°10' E 028°39'0 0.0
2017-Oct-31 08:29N 44°10' E 028°39'0 0.0
2017-Oct-31 07:56N 44°10' E 028°39'0 0.0
2017-Oct-31 07:29N 44°10' E 028°39'0 0.0
2017-Oct-31 06:59N 44°10' E 028°39'0 0.0
2017-Oct-31 06:29N 44°10' E 028°39'0 0.0
2017-Oct-31 05:59N 44°10' E 028°39'0 0.0
2017-Oct-31 05:26N 44°10' E 028°39'0 0.0
2017-Oct-31 04:59N 44°10' E 028°39'0 0.0
2017-Oct-31 04:29N 44°10' E 028°39'0 0.0
2017-Oct-31 03:59N 44°10' E 028°39'0 0.0
2017-Oct-31 03:29N 44°10' E 028°39'0 0.0
2017-Oct-31 02:59N 44°10' E 028°39'0 0.0
2017-Oct-31 02:29N 44°10' E 028°39'0 0.0
2017-Oct-31 01:59N 44°10' E 028°39'0 0.0
2017-Oct-31 01:29N 44°10' E 028°39'0 0.0
2017-Oct-31 00:59N 44°10' E 028°39'0 0.0
2017-Oct-31 00:29N 44°10' E 028°39'0 0.0
2017-Oct-30 23:59N 44°10' E 028°39'0 0.0
2017-Oct-30 23:29N 44°10' E 028°39'0 0.0
2017-Oct-30 22:59N 44°10' E 028°39'0 0.0
2017-Oct-30 22:29N 44°10' E 028°39'0 0.0
2017-Oct-30 21:59N 44°10' E 028°39'0 0.0
2017-Oct-30 21:29N 44°10' E 028°39'0 0.0
2017-Oct-30 20:59N 44°10' E 028°39'0 0.0
2017-Oct-30 20:29N 44°10' E 028°39'0 0.0
2017-Oct-30 19:56N 44°10' E 028°39'0 0.0
2017-Oct-30 19:29N 44°10' E 028°39'0 0.0
2017-Oct-30 18:59N 44°10' E 028°39'0 0.0
2017-Oct-30 18:29N 44°10' E 028°39'0 0.0
2017-Oct-30 17:59N 44°10' E 028°39'0 0.0
2017-Oct-30 17:29N 44°10' E 028°39'  
Track history (hours):
 
Tides and Currents Weather Stations Pressure Air Temp Water Temp Dewpoint Dewpoint Depression Visibility Wind Speed Wind Dir Waves Ship Positions

Ubc Tokyo

Last reported at 2017-Nov-09 17:14 UTC. Time now 2017-Nov-20 17:30 UTC.
Position N 44°13' E 029°16'.
Warning: this ship's position is 11 days out of date.

Length 183 m; draft 6.2 m.

Type: Cargo ship. MMSI: 210786000.

Date/timePositionNaut miles runAvg speedWind from/ knotsBaromVisibWave heightAir tempDewpointWater temp
2017-Nov-09 17:14N 44°13' E 029°16'313.4
2017-Nov-09 16:59N 44°10' E 029°12'613.4
2017-Nov-09 16:30N 44°07' E 029°05'713.4
2017-Nov-09 16:00N 44°03' E 028°57'5 9.8
2017-Nov-09 15:31N 44°00' E 028°52'5 9.9
2017-Nov-09 15:01N 44°02' E 028°45'5 9.8
2017-Nov-09 14:31N 44°06' E 028°42'3 6.5
2017-Nov-09 14:01N 44°09' E 028°40'1 1.8
2017-Nov-09 13:30N 44°10' E 028°39'0 0.0
2017-Nov-09 12:57N 44°10' E 028°39'0 0.0
2017-Nov-09 12:30N 44°10' E 028°39'0 0.0
2017-Nov-09 12:00N 44°10' E 028°39'0 0.0
2017-Nov-09 11:30N 44°10' E 028°39'0 0.0
2017-Nov-09 11:00N 44°10' E 028°39'0 0.0
2017-Nov-09 10:30N 44°10' E 028°39'0 0.0
2017-Nov-09 10:00N 44°10' E 028°39'0 0.0
2017-Nov-09 09:30N 44°10' E 028°39'0 0.0
2017-Nov-09 09:00N 44°10' E 028°39'0 0.0
2017-Nov-09 08:30N 44°10' E 028°39'0 0.0
2017-Nov-09 08:00N 44°10' E 028°39'0 0.0
2017-Nov-09 07:30N 44°10' E 028°39'0 0.0
2017-Nov-09 07:00N 44°10' E 028°39'0 0.0
2017-Nov-09 06:30N 44°10' E 028°39'0 0.0
2017-Nov-09 06:00N 44°10' E 028°39'0 0.0
2017-Nov-09 05:30N 44°10' E 028°39'0 0.0
2017-Nov-09 05:00N 44°10' E 028°39'0 0.0
2017-Nov-09 04:30N 44°10' E 028°39'0 0.0
2017-Nov-09 04:00N 44°10' E 028°39'0 0.0
2017-Nov-09 03:30N 44°10' E 028°39'0 0.0
2017-Nov-09 03:00N 44°10' E 028°39'0 0.0
2017-Nov-09 02:30N 44°10' E 028°39'0 0.0
2017-Nov-09 02:00N 44°10' E 028°39'0 0.0
2017-Nov-09 01:30N 44°10' E 028°39'0 0.0
2017-Nov-09 01:00N 44°10' E 028°39'0 0.0
2017-Nov-09 00:30N 44°10' E 028°39'0 0.0
2017-Nov-09 00:00N 44°10' E 028°39'0 0.0
2017-Nov-08 23:30N 44°10' E 028°39'0 0.0
2017-Nov-08 23:00N 44°10' E 028°39'0 0.0
2017-Nov-08 22:30N 44°10' E 028°39'0 0.0
2017-Nov-08 22:00N 44°10' E 028°39'0 0.0
2017-Nov-08 21:30N 44°10' E 028°39'0 0.0
2017-Nov-08 21:00N 44°10' E 028°39'0 0.0
2017-Nov-08 20:30N 44°10' E 028°39'0 0.0
2017-Nov-08 20:00N 44°10' E 028°39'0 0.0
2017-Nov-08 19:30N 44°10' E 028°39'0 0.0
2017-Nov-08 19:00N 44°10' E 028°39'0 0.0
2017-Nov-08 18:30N 44°10' E 028°39'0 0.0
2017-Nov-08 18:00N 44°10' E 028°39'0 0.0
2017-Nov-08 17:30N 44°10' E 028°39'0 0.0
2017-Nov-08 17:00N 44°10' E 028°39'0 0.0
2017-Nov-08 16:30N 44°10' E 028°39'0 0.0
2017-Nov-08 16:00N 44°10' E 028°39'0 0.0
2017-Nov-08 15:30N 44°10' E 028°39'0 0.0
2017-Nov-08 15:00N 44°10' E 028°39'0 0.0
2017-Nov-08 14:30N 44°10' E 028°39'0 0.0
2017-Nov-08 14:00N 44°10' E 028°39'0 0.0
2017-Nov-08 13:30N 44°10' E 028°39'0 0.0
2017-Nov-08 13:00N 44°10' E 028°39'0 0.0
2017-Nov-08 12:30N 44°10' E 028°39'0 0.0
2017-Nov-08 12:00N 44°10' E 028°39'0 0.0
2017-Nov-08 11:30N 44°10' E 028°39'0 0.0
2017-Nov-08 11:00N 44°10' E 028°39'0 0.0
2017-Nov-08 10:30N 44°10' E 028°39'0 0.0
2017-Nov-08 10:00N 44°10' E 028°39'0 0.0
2017-Nov-08 09:30N 44°10' E 028°39'0 0.0
2017-Nov-08 09:00N 44°10' E 028°39'0 0.0
2017-Nov-08 08:30N 44°10' E 028°39'0 0.0
2017-Nov-08 08:00N 44°10' E 028°39'0 0.0
2017-Nov-08 07:30N 44°10' E 028°39'0 0.0
2017-Nov-08 07:00N 44°10' E 028°39'0 0.0
2017-Nov-08 06:30N 44°10' E 028°39'0 0.0
2017-Nov-08 06:00N 44°10' E 028°39'0 0.0
2017-Nov-08 05:30N 44°10' E 028°39'0 0.0
2017-Nov-08 05:00N 44°10' E 028°39'0 0.0
2017-Nov-08 04:30N 44°10' E 028°39'0 0.0
2017-Nov-08 04:00N 44°10' E 028°39'0 0.0
2017-Nov-08 03:30N 44°10' E 028°39'0 0.0
2017-Nov-08 03:00N 44°10' E 028°39'0 0.0
2017-Nov-08 02:30N 44°10' E 028°39'0 0.0
2017-Nov-08 02:00N 44°10' E 028°39'0 0.0
2017-Nov-08 01:30N 44°10' E 028°39'0 0.0
2017-Nov-08 01:00N 44°10' E 028°39'0 0.0
2017-Nov-08 00:30N 44°10' E 028°39'0 0.0
2017-Nov-08 00:00N 44°10' E 028°39'0 0.0
2017-Nov-07 23:30N 44°10' E 028°39'0 0.0
2017-Nov-07 23:00N 44°10' E 028°39'0 0.0
2017-Nov-07 22:30N 44°10' E 028°39'0 0.0
2017-Nov-07 22:00N 44°10' E 028°39'0 0.0
2017-Nov-07 21:30N 44°10' E 028°39'0 0.0
2017-Nov-07 21:00N 44°10' E 028°39'0 0.0
2017-Nov-07 20:30N 44°10' E 028°39'0 0.0
2017-Nov-07 20:00N 44°10' E 028°39'0 0.0
2017-Nov-07 19:30N 44°10' E 028°39'0 0.0
2017-Nov-07 19:00N 44°10' E 028°39'0 0.0
2017-Nov-07 18:30N 44°10' E 028°39'0 0.0
2017-Nov-07 18:00N 44°10' E 028°39'0 0.0
2017-Nov-07 17:30N 44°10' E 028°39'0 0.0
2017-Nov-07 17:00N 44°10' E 028°39'0 0.0
2017-Nov-07 16:30N 44°10' E 028°39'0 0.0
2017-Nov-07 16:00N 44°10' E 028°39'0 0.0
2017-Nov-07 15:24N 44°10' E 028°39'0 0.0
2017-Nov-07 15:00N 44°10' E 028°39'0 0.0
2017-Nov-07 14:30N 44°10' E 028°39'0 0.0
2017-Nov-07 14:00N 44°10' E 028°39'0 0.0
2017-Nov-07 13:30N 44°10' E 028°39'0 0.0
2017-Nov-07 13:00N 44°10' E 028°39'0 0.0
2017-Nov-07 12:30N 44°10' E 028°39'0 0.0
2017-Nov-07 12:00N 44°10' E 028°39'0 0.0
2017-Nov-07 11:24N 44°10' E 028°39'0 0.0
2017-Nov-07 11:00N 44°10' E 028°39'0 0.0
2017-Nov-07 10:30N 44°10' E 028°39'0 0.0
2017-Nov-07 10:00N 44°10' E 028°39'0 0.0
2017-Nov-07 09:30N 44°10' E 028°39'0 0.0
2017-Nov-07 09:00N 44°10' E 028°39'0 0.0
2017-Nov-07 08:30N 44°10' E 028°39'0 0.0
2017-Nov-07 08:00N 44°10' E 028°39'0 0.0
2017-Nov-07 07:30N 44°10' E 028°39'0 0.0
2017-Nov-07 07:00N 44°10' E 028°39'0 0.0
2017-Nov-07 06:30N 44°10' E 028°39'0 0.0
2017-Nov-07 06:00N 44°10' E 028°39'0 0.0
2017-Nov-07 05:30N 44°10' E 028°39'0 0.0
2017-Nov-07 04:57N 44°10' E 028°39'0 0.0
2017-Nov-07 04:30N 44°10' E 028°39'0 0.0
2017-Nov-07 04:00N 44°10' E 028°39'0 0.0
2017-Nov-07 03:30N 44°10' E 028°39'0 0.0
2017-Nov-07 03:00N 44°10' E 028°39'0 0.0
2017-Nov-07 02:30N 44°10' E 028°39'0 0.0
2017-Nov-07 02:00N 44°10' E 028°39'0 0.0
2017-Nov-07 01:30N 44°10' E 028°39'0 0.0
2017-Nov-07 01:00N 44°10' E 028°39'0 0.0
2017-Nov-07 00:30N 44°10' E 028°39'0 0.0
2017-Nov-07 00:00N 44°10' E 028°39'0 0.0
2017-Nov-06 23:30N 44°10' E 028°39'0 0.0
2017-Nov-06 23:00N 44°10' E 028°39'0 0.0
2017-Nov-06 22:30N 44°10' E 028°39'0 0.0
2017-Nov-06 22:00N 44°10' E 028°39'0 0.0
2017-Nov-06 21:30N 44°10' E 028°39'0 0.0
2017-Nov-06 21:00N 44°10' E 028°39'0 0.0
2017-Nov-06 20:30N 44°10' E 028°39'0 0.0
2017-Nov-06 02:30N 44°10' E 028°39'0 0.0
2017-Nov-06 02:00N 44°10' E 028°39'0 0.0
2017-Nov-06 01:30N 44°10' E 028°39'0 0.0
2017-Nov-06 01:00N 44°10' E 028°39'0 0.0
2017-Nov-06 00:30N 44°10' E 028°39'0 0.0
2017-Nov-06 00:00N 44°10' E 028°39'0 0.0
2017-Nov-05 23:30N 44°10' E 028°39'0 0.0
2017-Nov-05 23:00N 44°10' E 028°39'0 0.0
2017-Nov-05 22:30N 44°10' E 028°39'0 0.0
2017-Nov-05 22:00N 44°10' E 028°39'0 0.0
2017-Nov-05 21:30N 44°10' E 028°39'0 0.0
2017-Nov-05 21:00N 44°10' E 028°39'0 0.0
2017-Nov-05 20:30N 44°10' E 028°39'0 0.0
2017-Nov-05 20:00N 44°10' E 028°39'0 0.0
2017-Nov-05 19:30N 44°10' E 028°39'0 0.0
2017-Nov-05 19:00N 44°10' E 028°39'0 0.0
2017-Nov-05 18:30N 44°10' E 028°39'0 0.0
2017-Nov-05 18:00N 44°10' E 028°39'0 0.0
2017-Nov-05 17:30N 44°10' E 028°39'0 0.0
2017-Nov-05 17:00N 44°10' E 028°39'0 0.0
2017-Nov-05 16:30N 44°10' E 028°39'0 0.0
2017-Nov-05 16:00N 44°10' E 028°39'0 0.0
2017-Nov-05 15:30N 44°10' E 028°39'0 0.0
2017-Nov-05 15:00N 44°10' E 028°39'0 0.0
2017-Nov-05 14:30N 44°10' E 028°39'0 0.0
2017-Nov-05 14:00N 44°10' E 028°39'0 0.0
2017-Nov-05 13:30N 44°10' E 028°39'0 0.0
2017-Nov-05 13:00N 44°10' E 028°39'0 0.0
2017-Nov-05 12:30N 44°10' E 028°39'0 0.0
2017-Nov-05 12:00N 44°10' E 028°39'0 0.0
2017-Nov-05 11:30N 44°10' E 028°39'0 0.0
2017-Nov-05 11:00N 44°10' E 028°39'0 0.0
2017-Nov-05 10:30N 44°10' E 028°39'0 0.0
2017-Nov-05 10:00N 44°10' E 028°39'0 0.0
2017-Nov-05 09:30N 44°10' E 028°39'0 0.0
2017-Nov-05 09:00N 44°10' E 028°39'0 0.0
2017-Nov-05 08:30N 44°10' E 028°39'0 0.0
2017-Nov-05 08:00N 44°10' E 028°39'0 0.0
2017-Nov-05 07:30N 44°10' E 028°39'0 0.0
2017-Nov-05 07:00N 44°10' E 028°39'0 0.0
2017-Nov-05 06:30N 44°10' E 028°39'0 0.0
2017-Nov-05 06:00N 44°10' E 028°39'0 0.0
2017-Nov-05 05:30N 44°10' E 028°39'0 0.0
2017-Nov-05 05:00N 44°10' E 028°39'0 0.0
2017-Nov-05 04:30N 44°10' E 028°39'0 0.0
2017-Nov-05 04:00N 44°10' E 028°39'0 0.0
2017-Nov-05 03:30N 44°10' E 028°39'0 0.0
2017-Nov-05 03:00N 44°10' E 028°39'0 0.0
2017-Nov-05 02:30N 44°10' E 028°39'0 0.0
2017-Nov-05 02:00N 44°10' E 028°39'0 0.0
2017-Nov-05 01:30N 44°10' E 028°39'0 0.0
2017-Nov-05 01:00N 44°10' E 028°39'0 0.0
2017-Nov-05 00:30N 44°10' E 028°39'0 0.0
2017-Nov-05 00:00N 44°10' E 028°39'0 0.0
2017-Nov-04 23:30N 44°10' E 028°39'0 0.0
2017-Nov-04 23:00N 44°10' E 028°39'0 0.0
2017-Nov-04 22:30N 44°10' E 028°39'0 0.0
2017-Nov-04 22:00N 44°10' E 028°39'0 0.0
2017-Nov-04 21:30N 44°10' E 028°39'0 0.0
2017-Nov-04 21:00N 44°10' E 028°39'0 0.0
2017-Nov-04 20:30N 44°10' E 028°39'0 0.0
2017-Nov-04 20:00N 44°10' E 028°39'0 0.0
2017-Nov-04 19:30N 44°10' E 028°39'0 0.0
2017-Nov-04 19:00N 44°10' E 028°39'0 0.0
2017-Nov-04 18:30N 44°10' E 028°39'0 0.0
2017-Nov-04 18:00N 44°10' E 028°39'0 0.0
2017-Nov-04 17:30N 44°10' E 028°39'0 0.0
2017-Nov-04 17:00N 44°10' E 028°39'0 0.0
2017-Nov-04 16:30N 44°10' E 028°39'0 0.0
2017-Nov-04 16:00N 44°10' E 028°39'0 0.0
2017-Nov-04 15:30N 44°10' E 028°39'0 0.0
2017-Nov-04 15:00N 44°10' E 028°39'0 0.0
2017-Nov-04 14:30N 44°10' E 028°39'0 0.0
2017-Nov-04 14:00N 44°10' E 028°39'0 0.0
2017-Nov-04 13:27N 44°10' E 028°39'0 0.0
2017-Nov-04 13:00N 44°10' E 028°39'0 0.0
2017-Nov-04 12:30N 44°10' E 028°39'0 0.0
2017-Nov-04 12:00N 44°10' E 028°39'0 0.0
2017-Nov-04 11:30N 44°10' E 028°39'0 0.0
2017-Nov-04 11:00N 44°10' E 028°39'0 0.0
2017-Nov-04 10:30N 44°10' E 028°39'0 0.0
2017-Nov-04 10:00N 44°10' E 028°39'0 0.0
2017-Nov-04 09:30N 44°10' E 028°39'0 0.0
2017-Nov-04 09:00N 44°10' E 028°39'0 0.0
2017-Nov-04 08:30N 44°10' E 028°39'0 0.0
2017-Nov-04 08:00N 44°10' E 028°39'0 0.0
2017-Nov-04 07:30N 44°10' E 028°39'0 0.0
2017-Nov-04 07:00N 44°10' E 028°39'0 0.0
2017-Nov-04 06:27N 44°10' E 028°39'0 0.0
2017-Nov-04 06:00N 44°10' E 028°39'0 0.0
2017-Nov-04 05:30N 44°10' E 028°39'0 0.0
2017-Nov-04 05:00N 44°10' E 028°39'0 0.0
2017-Nov-04 04:30N 44°10' E 028°39'0 0.0
2017-Nov-04 04:00N 44°10' E 028°39'0 0.0
2017-Nov-04 03:30N 44°10' E 028°39'0 0.0
2017-Nov-04 03:00N 44°10' E 028°39'0 0.0
2017-Nov-04 02:30N 44°10' E 028°39'0 0.0
2017-Nov-04 01:56N 44°10' E 028°39'0 0.0
2017-Nov-04 01:30N 44°10' E 028°39'0 0.0
2017-Nov-04 01:00N 44°10' E 028°39'0 0.0
2017-Nov-04 00:30N 44°10' E 028°39'0 0.0
2017-Nov-03 23:59N 44°10' E 028°39'0 0.0
2017-Nov-03 23:30N 44°10' E 028°39'0 0.0
2017-Nov-03 23:00N 44°10' E 028°39'0 0.0
2017-Nov-03 22:30N 44°10' E 028°39'0 0.0
2017-Nov-03 22:00N 44°10' E 028°39'0 0.0
2017-Nov-03 21:30N 44°10' E 028°39'0 0.0
2017-Nov-03 21:00N 44°10' E 028°39'0 0.0
2017-Nov-03 20:30N 44°10' E 028°39'0 0.0
2017-Nov-03 19:59N 44°10' E 028°39'0 0.0
2017-Nov-03 19:30N 44°10' E 028°39'0 0.0
2017-Nov-03 19:00N 44°10' E 028°39'0 0.0
2017-Nov-03 18:30N 44°10' E 028°39'0 0.0
2017-Nov-03 18:00N 44°10' E 028°39'0 0.0
2017-Nov-03 17:29N 44°10' E 028°39'0 0.0
2017-Nov-03 16:59N 44°10' E 028°39'0 0.0
2017-Nov-03 16:30N 44°10' E 028°39'0 0.0
2017-Nov-03 16:00N 44°10' E 028°39'0 0.0
2017-Nov-03 15:30N 44°10' E 028°39'0 0.0
2017-Nov-03 15:00N 44°10' E 028°39'0 0.0
2017-Nov-03 14:30N 44°10' E 028°39'0 0.0
2017-Nov-03 14:00N 44°10' E 028°39'0 0.0
2017-Nov-03 13:30N 44°10' E 028°39'0 0.0
2017-Nov-03 13:00N 44°10' E 028°39'0 0.0
2017-Nov-03 12:29N 44°10' E 028°39'0 0.0
2017-Nov-03 12:00N 44°10' E 028°39'0 0.0
2017-Nov-03 11:30N 44°10' E 028°39'0 0.0
2017-Nov-03 10:59N 44°10' E 028°39'0 0.0
2017-Nov-03 10:29N 44°10' E 028°39'0 0.0
2017-Nov-03 09:59N 44°10' E 028°39'0 0.0
2017-Nov-03 09:30N 44°10' E 028°39'0 0.0
2017-Nov-03 09:00N 44°10' E 028°39'0 0.0
2017-Nov-03 08:29N 44°10' E 028°39'0 0.0
2017-Nov-03 07:59N 44°10' E 028°39'0 0.0
2017-Nov-03 07:29N 44°10' E 028°39'0 0.0
2017-Nov-03 06:59N 44°10' E 028°39'0 0.0
2017-Nov-03 06:29N 44°10' E 028°39'0 0.0
2017-Nov-03 05:59N 44°10' E 028°39'0 0.0
2017-Nov-03 05:29N 44°10' E 028°39'0 0.0
2017-Nov-03 04:59N 44°10' E 028°39'0 0.0
2017-Nov-03 04:29N 44°10' E 028°39'0 0.0
2017-Nov-03 04:00N 44°10' E 028°39'0 0.0
2017-Nov-03 03:29N 44°10' E 028°39'0 0.0
2017-Nov-03 02:59N 44°10' E 028°39'0 0.0
2017-Nov-03 02:29N 44°10' E 028°39'0 0.0
2017-Nov-03 01:59N 44°10' E 028°39'0 0.0
2017-Nov-03 01:30N 44°10' E 028°39'0 0.0
2017-Nov-03 00:59N 44°10' E 028°39'0 0.0
2017-Nov-03 00:29N 44°10' E 028°39'0 0.0
2017-Nov-02 23:59N 44°10' E 028°39'0 0.0
2017-Nov-02 23:29N 44°10' E 028°39'0 0.0
2017-Nov-02 22:59N 44°10' E 028°39'0 0.0
2017-Nov-02 22:29N 44°10' E 028°39'0 0.0
2017-Nov-02 22:00N 44°10' E 028°39'0 0.0
2017-Nov-02 21:29N 44°10' E 028°39'0 0.0
2017-Nov-02 20:59N 44°10' E 028°39'0 0.0
2017-Nov-02 20:29N 44°10' E 028°39'0 0.0
2017-Nov-02 19:59N 44°10' E 028°39'0 0.0
2017-Nov-02 19:29N 44°10' E 028°39'0 0.0
2017-Nov-02 18:59N 44°10' E 028°39'0 0.0
2017-Nov-02 18:29N 44°10' E 028°39'0 0.0
2017-Nov-02 17:59N 44°10' E 028°39'0 0.0
2017-Nov-02 17:29N 44°10' E 028°39'0 0.0
2017-Nov-02 16:59N 44°10' E 028°39'0 0.0
2017-Nov-02 16:29N 44°10' E 028°39'0 0.0
2017-Nov-02 15:59N 44°10' E 028°39'0 0.0
2017-Nov-02 15:29N 44°10' E 028°39'0 0.0
2017-Nov-02 14:59N 44°10' E 028°39'0 0.0
2017-Nov-02 14:29N 44°10' E 028°39'0 0.0
2017-Nov-02 13:59N 44°10' E 028°39'0 0.0
2017-Nov-02 13:29N 44°10' E 028°39'0 0.0
2017-Nov-02 12:59N 44°10' E 028°39'0 0.0
2017-Nov-02 12:29N 44°10' E 028°39'0 0.0
2017-Nov-02 11:59N 44°10' E 028°39'0 0.0
2017-Nov-02 11:29N 44°10' E 028°39'0 0.0
2017-Nov-02 10:59N 44°10' E 028°39'0 0.0
2017-Nov-02 10:29N 44°10' E 028°39'0 0.0
2017-Nov-02 09:59N 44°10' E 028°39'0 0.0
2017-Nov-02 09:29N 44°10' E 028°39'0 0.0
2017-Nov-02 08:59N 44°10' E 028°39'0 0.0
2017-Nov-02 08:29N 44°10' E 028°39'0 0.0
2017-Nov-02 07:59N 44°10' E 028°39'0 0.0
2017-Nov-02 07:29N 44°10' E 028°39'0 0.0
2017-Nov-02 06:59N 44°10' E 028°39'0 0.0
2017-Nov-02 06:29N 44°10' E 028°39'0 0.0
2017-Nov-02 05:59N 44°10' E 028°39'0 0.0
2017-Nov-02 05:29N 44°10' E 028°39'0 0.0
2017-Nov-02 04:59N 44°10' E 028°39'0 0.0
2017-Nov-02 04:29N 44°10' E 028°39'0 0.0
2017-Nov-02 03:59N 44°10' E 028°39'0 0.0
2017-Nov-02 03:29N 44°10' E 028°39'0 0.0
2017-Nov-02 02:59N 44°10' E 028°39'0 0.0
2017-Nov-02 02:29N 44°10' E 028°39'0 0.0
2017-Nov-02 01:59N 44°10' E 028°39'0 0.0
2017-Nov-02 01:29N 44°10' E 028°39'0 0.0
2017-Nov-02 00:59N 44°10' E 028°39'0 0.0
2017-Nov-02 00:29N 44°10' E 028°39'0 0.0
2017-Nov-01 23:59N 44°10' E 028°39'0 0.0
2017-Nov-01 23:29N 44°10' E 028°39'0 0.0
2017-Nov-01 22:59N 44°10' E 028°39'0 0.0
2017-Nov-01 22:29N 44°10' E 028°39'0 0.0
2017-Nov-01 21:59N 44°10' E 028°39'0 0.0
2017-Nov-01 21:29N 44°10' E 028°39'0 0.0
2017-Nov-01 20:59N 44°10' E 028°39'0 0.0
2017-Nov-01 20:29N 44°10' E 028°39'0 0.0
2017-Nov-01 19:59N 44°10' E 028°39'0 0.0
2017-Nov-01 19:29N 44°10' E 028°39'0 0.0
2017-Nov-01 18:59N 44°10' E 028°39'0 0.0
2017-Nov-01 18:29N 44°10' E 028°39'0 0.0
2017-Nov-01 01:59N 44°10' E 028°39'0 0.0
2017-Nov-01 01:29N 44°10' E 028°39'0 0.0
2017-Nov-01 00:59N 44°10' E 028°39'0 0.0
2017-Nov-01 00:29N 44°10' E 028°39'0 0.0
2017-Oct-31 23:59N 44°10' E 028°39'0 0.0
2017-Oct-31 23:26N 44°10' E 028°39'0 0.0
2017-Oct-31 22:59N 44°10' E 028°39'0 0.0
2017-Oct-31 22:29N 44°10' E 028°39'0 0.0
2017-Oct-31 21:59N 44°10' E 028°39'0 0.0
2017-Oct-31 21:29N 44°10' E 028°39'0 0.0
2017-Oct-31 20:59N 44°10' E 028°39'0 0.0
2017-Oct-31 20:29N 44°10' E 028°39'0 0.0
2017-Oct-31 19:59N 44°10' E 028°39'0 0.0
2017-Oct-31 19:29N 44°10' E 028°39'0 0.0
2017-Oct-31 18:59N 44°10' E 028°39'0 0.0
2017-Oct-31 18:29N 44°10' E 028°39'0 0.0
2017-Oct-31 17:59N 44°10' E 028°39'0 0.0
2017-Oct-31 17:29N 44°10' E 028°39'0 0.0
2017-Oct-31 16:59N 44°10' E 028°39'0 0.0
2017-Oct-31 16:29N 44°10' E 028°39'0 0.0
2017-Oct-31 15:59N 44°10' E 028°39'0 0.0
2017-Oct-31 15:29N 44°10' E 028°39'0 0.0
2017-Oct-31 14:59N 44°10' E 028°39'0 0.0
2017-Oct-31 14:29N 44°10' E 028°39'0 0.0
2017-Oct-31 13:59N 44°10' E 028°39'0 0.0
2017-Oct-31 13:26N 44°10' E 028°39'0 0.0
2017-Oct-31 12:59N 44°10' E 028°39'0 0.0
2017-Oct-31 12:29N 44°10' E 028°39'0 0.0
2017-Oct-31 11:59N 44°10' E 028°39'0 0.0
2017-Oct-31 11:29N 44°10' E 028°39'0 0.0
2017-Oct-31 10:59N 44°10' E 028°39'0 0.0
2017-Oct-31 10:29N 44°10' E 028°39'0 0.0
2017-Oct-31 09:59N 44°10' E 028°39'0 0.0
2017-Oct-31 09:23N 44°10' E 028°39'0 0.0
2017-Oct-31 08:59N 44°10' E 028°39'0 0.0
2017-Oct-31 08:29N 44°10' E 028°39'0 0.0
2017-Oct-31 07:56N 44°10' E 028°39'0 0.0
2017-Oct-31 07:29N 44°10' E 028°39'0 0.0
2017-Oct-31 06:59N 44°10' E 028°39'0 0.0
2017-Oct-31 06:29N 44°10' E 028°39'0 0.0
2017-Oct-31 05:59N 44°10' E 028°39'0 0.0
2017-Oct-31 05:26N 44°10' E 028°39'0 0.0
2017-Oct-31 04:59N 44°10' E 028°39'0 0.0
2017-Oct-31 04:29N 44°10' E 028°39'0 0.0
2017-Oct-31 03:59N 44°10' E 028°39'0 0.0
2017-Oct-31 03:29N 44°10' E 028°39'0 0.0
2017-Oct-31 02:59N 44°10' E 028°39'0 0.0
2017-Oct-31 02:29N 44°10' E 028°39'0 0.0
2017-Oct-31 01:59N 44°10' E 028°39'0 0.0
2017-Oct-31 01:29N 44°10' E 028°39'0 0.0
2017-Oct-31 00:59N 44°10' E 028°39'0 0.0
2017-Oct-31 00:29N 44°10' E 028°39'0 0.0
2017-Oct-30 23:59N 44°10' E 028°39'0 0.0
2017-Oct-30 23:29N 44°10' E 028°39'0 0.0
2017-Oct-30 22:59N 44°10' E 028°39'0 0.0
2017-Oct-30 22:29N 44°10' E 028°39'0 0.0
2017-Oct-30 21:59N 44°10' E 028°39'0 0.0
2017-Oct-30 21:29N 44°10' E 028°39'0 0.0
2017-Oct-30 20:59N 44°10' E 028°39'0 0.0
2017-Oct-30 20:29N 44°10' E 028°39'0 0.0
2017-Oct-30 19:56N 44°10' E 028°39'0 0.0
2017-Oct-30 19:29N 44°10' E 028°39'0 0.0
2017-Oct-30 18:59N 44°10' E 028°39'0 0.0
2017-Oct-30 18:29N 44°10' E 028°39'0 0.0
2017-Oct-30 17:59N 44°10' E 028°39'0 0.0
2017-Oct-30 17:29N 44°10' E 028°39'  

Dump ship's entire track history